createdAt,value
2023-03-13T00:01:14.705Z,99780.25
2023-03-13T00:03:42.759Z,99769.16
2023-03-13T00:06:10.690Z,99772.94
2023-03-13T00:08:38.458Z,99770.13
2023-03-13T00:11:09.992Z,99768.53
2023-03-13T00:13:38.388Z,99772.69
2023-03-13T00:16:08.911Z,99763.34
2023-03-13T00:18:38.377Z,99755.66
2023-03-13T00:21:10.367Z,99754.25
2023-03-13T00:23:40.387Z,99753.63
2023-03-13T00:26:10.462Z,99748.97
2023-03-13T00:28:40.147Z,99741.00
2023-03-13T00:31:10.106Z,99730.38
2023-03-13T00:33:40.938Z,99726.06
2023-03-13T00:36:11.273Z,99732.66
2023-03-13T00:38:40.367Z,99721.75
2023-03-13T00:41:12.254Z,99721.75
2023-03-13T00:43:40.275Z,99702.88
2023-03-13T00:46:08.109Z,99705.53
2023-03-13T00:48:37.406Z,99705.16
2023-03-13T00:51:08.343Z,99705.78
2023-03-13T00:53:36.547Z,99695.00
2023-03-13T00:56:07.064Z,99693.53
2023-03-13T00:58:36.426Z,99687.56
2023-03-13T01:01:09.673Z,99684.91
2023-03-13T01:03:38.509Z,99674.91
2023-03-13T01:06:09.690Z,99674.91
2023-03-13T01:08:38.028Z,99664.09
2023-03-13T01:11:08.747Z,99660.72
2023-03-13T01:13:37.910Z,99657.56
2023-03-13T01:16:06.896Z,99654.69
2023-03-13T01:18:34.728Z,99643.56
2023-03-13T01:21:03.771Z,99646.88
2023-03-13T01:23:33.502Z,99641.38
2023-03-13T01:26:01.104Z,99632.59
2023-03-13T01:28:29.166Z,99615.28
2023-03-13T01:30:58.435Z,99613.97
2023-03-13T01:33:26.987Z,99609.63
2023-03-13T01:36:02.272Z,99606.81
2023-03-13T01:38:30.751Z,99600.69
2023-03-13T01:41:00.302Z,99590.00
2023-03-13T01:43:30.277Z,99588.97
2023-03-13T01:46:13.525Z,99581.03
2023-03-13T01:48:54.089Z,99574.03
2023-03-13T01:51:27.882Z,99570.50
2023-03-13T01:54:03.772Z,99568.84
2023-03-13T01:56:40.204Z,99553.44
2023-03-13T01:59:11.674Z,99539.13
2023-03-13T02:01:40.771Z,99532.84
2023-03-13T02:04:09.200Z,99521.22
2023-03-13T02:06:41.212Z,99509.13
2023-03-13T02:09:13.750Z,99504.13
2023-03-13T02:11:50.731Z,99495.31
2023-03-13T02:14:22.380Z,99492.81
2023-03-13T02:16:51.997Z,99487.31
2023-03-13T02:19:26.389Z,99482.22
2023-03-13T02:22:03.006Z,99466.13
2023-03-13T02:24:38.495Z,99468.78
2023-03-13T02:27:08.575Z,99461.63
2023-03-13T02:29:39.656Z,99450.50
2023-03-13T02:32:08.643Z,99444.53
2023-03-13T02:34:40.372Z,99432.44
2023-03-13T02:37:12.813Z,99430.97
2023-03-13T02:39:45.720Z,99416.50
2023-03-13T02:42:17.422Z,99414.03
2023-03-13T02:44:48.066Z,99402.06
2023-03-13T02:47:19.460Z,99403.38
2023-03-13T02:49:48.538Z,99396.47
2023-03-13T02:52:20.918Z,99389.97
2023-03-13T02:54:52.524Z,99384.66
2023-03-13T02:57:23.500Z,99377.19
2023-03-13T02:59:51.460Z,99366.38
2023-03-13T03:02:19.910Z,99368.22
2023-03-13T03:04:47.642Z,99370.56
2023-03-13T03:07:16.034Z,99365.44
2023-03-13T03:09:44.072Z,99365.75
2023-03-13T03:12:17.966Z,99347.50
2023-03-13T03:14:47.518Z,99352.34
2023-03-13T03:17:15.968Z,99346.34
2023-03-13T03:19:47.396Z,99344.69
2023-03-13T03:22:15.270Z,99335.06
2023-03-13T03:24:43.468Z,99322.44
2023-03-13T03:27:13.059Z,99331.94
2023-03-13T03:29:49.167Z,99324.16
2023-03-13T03:32:19.544Z,99322.31
2023-03-13T03:34:48.442Z,99324.97
2023-03-13T03:37:16.385Z,99313.22
2023-03-13T03:39:44.361Z,99309.03
2023-03-13T03:42:13.188Z,99301.25
2023-03-13T03:44:42.624Z,99299.28
2023-03-13T03:47:12.743Z,99292.81
2023-03-13T03:49:48.474Z,99277.88
2023-03-13T03:52:18.193Z,99272.06
2023-03-13T03:54:46.067Z,99276.03
2023-03-13T03:57:16.435Z,99274.88
2023-03-13T03:59:46.415Z,99269.91
2023-03-13T04:02:15.479Z,99274.53
2023-03-13T04:04:45.604Z,99272.22
2023-03-13T04:07:19.950Z,99266.72
2023-03-13T04:09:48.825Z,99271.72
2023-03-13T04:12:25.336Z,99266.06
2023-03-13T04:14:56.802Z,99260.56
2023-03-13T04:17:26.958Z,99270.03
2023-03-13T04:19:54.787Z,99266.75
2023-03-13T04:22:25.982Z,99257.59
2023-03-13T04:24:58.708Z,99264.72
2023-03-13T04:27:26.460Z,99263.56
2023-03-13T04:29:55.281Z,99255.44
2023-03-13T04:32:40.622Z,99259.75
2023-03-13T04:35:23.788Z,99251.44
2023-03-13T04:38:24.093Z,99247.13
2023-03-13T04:41:08.838Z,99238.31
2023-03-13T04:44:12.528Z,99231.78
2023-03-13T04:46:50.993Z,99223.84
2023-03-13T04:49:48.119Z,99232.00
2023-03-13T04:52:38.891Z,99225.84
2023-03-13T04:55:26.488Z,99234.81
2023-03-13T04:58:09.764Z,99224.50
2023-03-13T05:01:01.649Z,99224.84
2023-03-13T05:03:53.967Z,99224.50
2023-03-13T05:06:46.088Z,99216.66
2023-03-13T05:09:34.424Z,99216.47
2023-03-13T05:12:34.446Z,99210.19
2023-03-13T05:15:32.374Z,99216.47
2023-03-13T05:18:23.112Z,99204.38
2023-03-13T05:21:08.408Z,99200.00
2023-03-13T05:24:03.794Z,99185.56
2023-03-13T05:26:41.185Z,99199.69
2023-03-13T05:29:27.778Z,99202.81
2023-03-13T05:32:19.422Z,99192.16
2023-03-13T05:35:06.013Z,99176.97
2023-03-13T05:37:59.306Z,99188.25
2023-03-13T05:40:36.140Z,99180.97
2023-03-13T05:43:15.030Z,99175.66
2023-03-13T05:46:02.965Z,99182.13
2023-03-13T05:48:47.406Z,99165.94
2023-03-13T05:51:45.985Z,99174.41
2023-03-13T05:54:26.395Z,99173.28
2023-03-13T05:57:09.200Z,99171.09
2023-03-13T05:59:44.140Z,99174.25
2023-03-13T06:02:41.816Z,99179.97
2023-03-13T06:05:13.487Z,99171.06
2023-03-13T06:07:41.953Z,99168.22
2023-03-13T06:10:11.559Z,99172.81
2023-03-13T06:12:41.173Z,99182.00
2023-03-13T06:15:12.758Z,99174.03
2023-03-13T06:17:54.785Z,99169.38
2023-03-13T06:20:23.399Z,99174.56
2023-03-13T06:26:13.010Z,99166.91
2023-03-13T06:28:43.459Z,99170.09
2023-03-13T06:31:13.096Z,99155.94
2023-03-13T06:33:40.676Z,99160.88
2023-03-13T06:36:10.386Z,99165.31
2023-03-13T06:38:39.410Z,99166.41
2023-03-13T06:41:07.981Z,99164.13
2023-03-13T06:43:35.543Z,99168.09
2023-03-13T06:46:06.365Z,99167.81
2023-03-13T06:48:34.033Z,99171.94
2023-03-13T06:51:01.677Z,99170.75
2023-03-13T06:53:29.215Z,99169.75
2023-03-13T06:55:57.386Z,99172.34
2023-03-13T06:58:31.961Z,99176.50
2023-03-13T07:01:00.881Z,99172.00
2023-03-13T07:03:30.426Z,99159.59
2023-03-13T07:06:00.221Z,99164.81
2023-03-13T07:08:28.820Z,99166.59
2023-03-13T07:11:00.824Z,99181.19
2023-03-13T07:13:29.649Z,99166.50
2023-03-13T07:16:00.391Z,99166.97
2023-03-13T07:18:28.125Z,99162.19
2023-03-13T07:20:59.015Z,99173.31
2023-03-13T07:23:28.722Z,99159.72
2023-03-13T07:25:57.568Z,99152.84
2023-03-13T07:28:25.897Z,99158.00
2023-03-13T07:30:57.411Z,99156.31
2023-03-13T07:33:25.070Z,99157.34
2023-03-13T07:35:53.536Z,99148.72
2023-03-13T07:38:22.627Z,99152.59
2023-03-13T07:40:51.100Z,99139.91
2023-03-13T07:43:19.486Z,99118.53
2023-03-13T07:45:53.793Z,99119.25
2023-03-13T07:48:22.542Z,99122.38
2023-03-13T07:50:50.503Z,99122.66
2023-03-13T07:53:21.204Z,99124.66
2023-03-13T07:55:58.009Z,99120.81
2023-03-13T07:58:27.332Z,99111.63
2023-03-13T08:00:55.590Z,99116.75
2023-03-13T08:03:26.404Z,99109.22
2023-03-13T08:06:02.197Z,99115.09
2023-03-13T08:08:31.501Z,99103.41
2023-03-13T08:11:06.591Z,99096.38
2023-03-13T08:13:35.533Z,99115.19
2023-03-13T08:16:07.948Z,99113.88
2023-03-13T08:18:36.974Z,99102.28
2023-03-13T08:21:06.234Z,99094.53
2023-03-13T08:23:34.540Z,99113.66
2023-03-13T08:26:09.011Z,99107.72
2023-03-13T08:28:37.514Z,99099.38
2023-03-13T08:31:10.538Z,99107.94
2023-03-13T08:33:38.598Z,99104.47
2023-03-13T08:36:13.514Z,99098.19
2023-03-13T08:38:45.871Z,99111.06
2023-03-13T08:41:16.905Z,99089.69
2023-03-13T08:43:45.516Z,99102.78
2023-03-13T08:46:13.401Z,99107.91
2023-03-13T08:48:42.297Z,99115.78
2023-03-13T08:51:13.426Z,99104.28
2023-03-13T08:53:43.557Z,99115.75
2023-03-13T08:56:12.856Z,99109.88
2023-03-13T08:58:42.504Z,99110.50
2023-03-13T09:01:12.806Z,99119.53
2023-03-13T09:03:41.450Z,99111.16
2023-03-13T09:06:09.553Z,99099.78
2023-03-13T09:08:39.465Z,99106.91
2023-03-13T09:14:04.399Z,99105.00
2023-03-13T09:16:33.374Z,99105.84
2023-03-13T09:19:01.594Z,99109.38
2023-03-13T09:21:31.489Z,99106.91
2023-03-13T09:23:59.508Z,99107.53
2023-03-13T09:26:28.996Z,99103.13
2023-03-13T09:28:57.235Z,99093.69
2023-03-13T09:31:28.615Z,99092.34
2023-03-13T09:33:56.695Z,99082.13
2023-03-13T09:36:26.485Z,99075.81
2023-03-13T09:38:57.250Z,99073.47
2023-03-13T09:41:29.436Z,99073.09
2023-03-13T09:44:04.624Z,99077.06
2023-03-13T09:46:39.099Z,99102.66
2023-03-13T09:49:16.661Z,99042.31
2023-03-13T09:51:52.443Z,99045.59
2023-03-13T09:54:26.095Z,99043.16
2023-03-13T09:56:58.585Z,99054.97
2023-03-13T09:59:40.017Z,99039.56
2023-03-13T10:02:22.594Z,99046.00
2023-03-13T10:04:54.604Z,99039.28
2023-03-13T10:07:23.034Z,99038.25
2023-03-13T10:09:51.852Z,99043.22
2023-03-13T10:12:24.397Z,99032.69
2023-03-13T10:15:04.519Z,99045.25
2023-03-13T10:17:37.169Z,99043.59
2023-03-13T10:20:18.465Z,99029.19
2023-03-13T10:22:50.999Z,99037.22
2023-03-13T10:25:27.464Z,99027.16
2023-03-13T10:27:56.426Z,99042.78
2023-03-13T10:30:26.125Z,99033.75
2023-03-13T10:33:01.500Z,99028.19
2023-03-13T10:35:36.531Z,99026.75
2023-03-13T10:38:06.709Z,99017.03
2023-03-13T10:40:35.411Z,99021.56
2023-03-13T10:43:07.125Z,99011.69
2023-03-13T10:45:37.578Z,99008.00
2023-03-13T10:48:16.050Z,99014.56
2023-03-13T10:50:45.527Z,98998.28
2023-03-13T10:53:27.229Z,98983.84
2023-03-13T10:55:56.505Z,98987.31
2023-03-13T10:58:31.804Z,98991.47
2023-03-13T11:01:15.148Z,98990.84
2023-03-13T11:03:46.459Z,98992.03
2023-03-13T11:06:26.925Z,98974.28
2023-03-13T11:09:02.856Z,98980.28
2023-03-13T11:11:31.038Z,98978.84
2023-03-13T11:14:10.494Z,98982.94
2023-03-13T11:16:43.787Z,98961.66
2023-03-13T11:19:44.820Z,98952.66
2023-03-13T11:22:26.226Z,98965.00
2023-03-13T11:25:03.176Z,98976.53
2023-03-13T11:27:37.488Z,98958.97
2023-03-13T11:30:17.884Z,98951.28
2023-03-13T11:32:53.641Z,98963.44
2023-03-13T11:35:37.573Z,98953.44
2023-03-13T11:38:14.056Z,98944.88
2023-03-13T11:40:50.575Z,98934.81
2023-03-13T11:43:40.888Z,98936.25
2023-03-13T11:46:22.798Z,98924.41
2023-03-13T11:49:23.513Z,98929.97
2023-03-13T11:52:23.265Z,98918.38
2023-03-13T11:55:13.539Z,98926.06
2023-03-13T11:57:53.970Z,98913.78
2023-03-13T12:00:30.486Z,98904.84
2023-03-13T12:03:06.518Z,98908.38
2023-03-13T12:05:42.294Z,98909.69
2023-03-13T12:08:18.900Z,98902.88
2023-03-13T12:13:45.505Z,98883.41
2023-03-13T12:16:19.578Z,98882.66
2023-03-13T12:18:50.509Z,98879.22
2023-03-13T12:21:22.303Z,98864.09
2023-03-13T12:23:56.538Z,98863.91
2023-03-13T12:26:35.632Z,98877.97
2023-03-13T12:29:12.658Z,98862.84
2023-03-13T12:31:44.747Z,98854.97
2023-03-13T12:34:17.644Z,98852.31
2023-03-13T12:36:49.523Z,98841.59
2023-03-13T12:39:28.455Z,98856.78
2023-03-13T12:42:11.192Z,98841.44
2023-03-13T12:44:41.017Z,98833.75
2023-03-13T12:47:18.800Z,98845.97
2023-03-13T12:50:27.442Z,98848.19
2023-03-13T12:53:48.945Z,98813.31
2023-03-13T12:56:32.552Z,98817.34
2023-03-13T12:59:08.014Z,98813.84
2023-03-13T13:01:41.672Z,98811.50
2023-03-13T13:04:13.847Z,98818.28
2023-03-13T13:07:07.197Z,98809.41
2023-03-13T13:09:38.438Z,98806.06
2023-03-13T13:12:21.074Z,98809.03
2023-03-13T13:15:06.515Z,98799.47
2023-03-13T13:17:53.771Z,98832.53
2023-03-13T13:20:31.371Z,98819.03
2023-03-13T13:23:21.997Z,98808.81
2023-03-13T13:25:50.350Z,98804.59
2023-03-13T13:28:35.269Z,98805.22
2023-03-13T13:31:03.612Z,98789.03
2023-03-13T13:33:42.012Z,98799.03
2023-03-13T13:36:30.907Z,98779.47
2023-03-13T13:39:00.587Z,98799.75
2023-03-13T13:41:39.541Z,98793.13
2023-03-13T13:44:30.384Z,98779.94
2023-03-13T13:47:02.844Z,98788.59
2023-03-13T13:49:55.363Z,98775.47
2023-03-13T13:52:41.554Z,98785.00
2023-03-13T13:55:32.755Z,98794.97
2023-03-13T13:58:04.081Z,98785.06
2023-03-13T14:00:42.169Z,98786.53
2023-03-13T14:03:20.353Z,98791.06
2023-03-13T14:05:50.666Z,98782.88
2023-03-13T14:08:25.184Z,98787.34
2023-03-13T14:11:04.522Z,98779.31
2023-03-13T14:13:32.447Z,98775.94
2023-03-13T14:16:24.563Z,98773.44
2023-03-13T14:18:53.490Z,98770.28
2023-03-13T14:21:23.645Z,98766.56
2023-03-13T14:23:52.453Z,98763.00
2023-03-13T14:26:23.468Z,98762.22
2023-03-13T14:28:54.349Z,98754.97
2023-03-13T14:31:26.109Z,98756.09
2023-03-13T14:33:54.525Z,98746.13
2023-03-13T14:36:22.469Z,98737.56
2023-03-13T14:38:57.440Z,98749.56
2023-03-13T14:41:29.870Z,98740.66
2023-03-13T14:44:04.463Z,98745.22
2023-03-13T14:46:36.762Z,98732.84
2023-03-13T14:49:16.411Z,98717.03
2023-03-13T14:51:45.425Z,98717.22
2023-03-13T14:54:32.610Z,98712.66
2023-03-13T14:57:24.034Z,98717.03
2023-03-13T14:59:53.670Z,98707.72
2023-03-13T15:02:25.423Z,98699.09
2023-03-13T15:04:59.294Z,98704.88
2023-03-13T15:07:29.235Z,98693.41
2023-03-13T15:09:57.569Z,98696.00
2023-03-13T15:12:25.406Z,98688.34
2023-03-13T15:14:54.048Z,98684.94
2023-03-13T15:17:25.453Z,98681.34
2023-03-13T15:19:54.912Z,98680.31
2023-03-13T15:22:30.608Z,98672.31
2023-03-13T15:25:07.361Z,98668.97
2023-03-13T15:27:36.244Z,98679.56
2023-03-13T15:30:04.083Z,98651.06
2023-03-13T15:32:35.679Z,98646.66
2023-03-13T15:35:08.524Z,98646.56
2023-03-13T15:37:36.903Z,98661.44
2023-03-13T15:40:08.002Z,98662.09
2023-03-13T15:42:36.918Z,98647.06
2023-03-13T15:45:07.039Z,98650.13
2023-03-13T15:47:37.452Z,98656.16
2023-03-13T15:50:08.050Z,98649.59
2023-03-13T15:52:36.687Z,98634.97
2023-03-13T15:55:07.097Z,98630.66
2023-03-13T15:57:43.457Z,98621.13
2023-03-13T16:00:17.540Z,98613.25
2023-03-13T16:02:46.547Z,98621.19
2023-03-13T16:05:15.542Z,98611.13
2023-03-13T16:07:43.195Z,98600.50
2023-03-13T16:10:17.509Z,98607.13
2023-03-13T16:12:45.120Z,98603.25
2023-03-13T16:15:12.818Z,98587.59
2023-03-13T16:17:40.454Z,98573.44
2023-03-13T16:20:16.901Z,98578.00
2023-03-13T16:22:45.797Z,98581.13
2023-03-13T16:25:14.253Z,98588.13
2023-03-13T16:27:42.407Z,98585.94
2023-03-13T16:30:17.791Z,98560.34
2023-03-13T16:32:46.184Z,98564.16
2023-03-13T16:35:15.419Z,98558.59
2023-03-13T16:37:45.385Z,98562.38
2023-03-13T16:40:19.249Z,98563.25
2023-03-13T16:42:47.468Z,98554.63
2023-03-13T16:45:15.750Z,98552.00
2023-03-13T16:47:45.701Z,98558.47
2023-03-13T16:50:24.676Z,98557.28
2023-03-13T16:52:55.475Z,98559.94
2023-03-13T16:55:28.326Z,98559.38
2023-03-13T16:57:56.309Z,98556.78
2023-03-13T17:00:26.478Z,98555.59
2023-03-13T17:02:57.913Z,98550.06
2023-03-13T17:05:27.400Z,98535.88
2023-03-13T17:07:55.448Z,98554.66
2023-03-13T17:10:25.384Z,98560.66
2023-03-13T17:12:57.555Z,98556.81
2023-03-13T17:15:26.450Z,98567.00
2023-03-13T17:17:55.898Z,98564.31
2023-03-13T17:20:25.454Z,98564.78
2023-03-13T17:22:56.117Z,98559.66
2023-03-13T17:25:24.274Z,98563.31
2023-03-13T17:27:51.923Z,98569.53
2023-03-13T17:30:22.558Z,98563.19
2023-03-13T17:32:51.610Z,98557.47
2023-03-13T17:35:20.853Z,98549.69
2023-03-13T17:37:52.210Z,98554.41
2023-03-13T17:40:23.378Z,98560.97
2023-03-13T17:42:51.733Z,98575.84
2023-03-13T17:45:20.357Z,98583.63
2023-03-13T17:47:50.190Z,98585.31
2023-03-13T17:50:20.637Z,98588.81
2023-03-13T17:52:48.330Z,98587.63
2023-03-13T17:55:17.254Z,98582.91
2023-03-13T17:57:47.780Z,98581.25
2023-03-13T18:00:22.467Z,98573.63
2023-03-13T18:02:50.733Z,98582.09
2023-03-13T18:05:18.779Z,98579.44
2023-03-13T18:07:46.695Z,98585.81
2023-03-13T18:10:18.395Z,98574.28
2023-03-13T18:12:47.795Z,98577.78
2023-03-13T18:15:15.806Z,98577.97
2023-03-13T18:17:43.459Z,98584.97
2023-03-13T18:20:16.158Z,98586.06
2023-03-13T18:22:43.875Z,98578.63
2023-03-13T18:25:12.501Z,98566.09
2023-03-13T18:27:41.443Z,98571.25
2023-03-13T18:30:17.376Z,98557.91
2023-03-13T18:32:45.270Z,98555.44
2023-03-13T18:35:14.491Z,98545.72
2023-03-13T18:37:43.630Z,98558.78
2023-03-13T18:40:18.027Z,98541.69
2023-03-13T18:42:46.057Z,98533.44
2023-03-13T18:45:21.150Z,98521.94
2023-03-13T18:47:49.617Z,98515.00
2023-03-13T18:50:23.460Z,98524.47
2023-03-13T18:52:51.134Z,98532.25
2023-03-13T18:55:18.803Z,98537.63
2023-03-13T18:57:47.883Z,98545.03
2023-03-13T19:00:19.837Z,98532.91
2023-03-13T19:02:47.907Z,98530.88
2023-03-13T19:05:15.547Z,98543.22
2023-03-13T19:07:43.513Z,98543.81
2023-03-13T19:10:20.339Z,98544.44
2023-03-13T19:12:48.105Z,98551.84
2023-03-13T19:15:16.469Z,98551.41
2023-03-13T19:17:46.206Z,98545.69
2023-03-13T19:20:16.486Z,98541.19
2023-03-13T19:22:44.193Z,98550.84
2023-03-13T19:25:12.447Z,98548.56
2023-03-13T19:27:40.639Z,98551.22
2023-03-13T19:30:16.909Z,98540.34
2023-03-13T19:32:45.936Z,98541.00
2023-03-13T19:35:13.653Z,98533.81
2023-03-13T19:37:41.297Z,98544.25
2023-03-13T19:40:18.388Z,98548.34
2023-03-13T19:42:46.100Z,98544.66
2023-03-13T19:45:14.146Z,98543.63
2023-03-13T19:47:41.770Z,98537.28
2023-03-13T19:50:18.246Z,98533.38
2023-03-13T19:52:46.377Z,98523.94
2023-03-13T19:55:14.473Z,98519.00
2023-03-13T19:57:42.116Z,98505.06
2023-03-13T20:00:17.485Z,98511.81
2023-03-13T20:02:46.809Z,98503.38
2023-03-13T20:05:16.037Z,98498.28
2023-03-13T20:07:43.713Z,98500.72
2023-03-13T20:10:12.316Z,98503.19
2023-03-13T20:12:40.181Z,98484.50
2023-03-13T20:15:09.470Z,98483.50
2023-03-13T20:17:37.036Z,98473.66
2023-03-13T20:20:08.186Z,98468.31
2023-03-13T20:22:37.277Z,98464.41
2023-03-13T20:25:05.394Z,98460.13
2023-03-13T20:27:34.486Z,98464.59
2023-03-13T20:30:02.094Z,98466.66
2023-03-13T20:32:29.870Z,98473.03
2023-03-13T20:34:57.484Z,98476.31
2023-03-13T20:37:26.071Z,98474.06
2023-03-13T20:39:55.488Z,98478.56
2023-03-13T20:42:23.214Z,98477.94
2023-03-13T20:44:50.909Z,98477.72
2023-03-13T20:47:19.427Z,98477.13
2023-03-13T20:49:47.035Z,98490.44
2023-03-13T20:52:15.105Z,98498.44
2023-03-13T20:54:42.767Z,98494.31
2023-03-13T20:57:11.686Z,98492.28
2023-03-13T20:59:41.055Z,98489.63
2023-03-13T21:02:09.756Z,98497.78
2023-03-13T21:04:38.081Z,98493.72
2023-03-13T21:07:05.727Z,98489.81
2023-03-13T21:09:34.492Z,98482.63
2023-03-13T21:12:02.127Z,98479.75
2023-03-13T21:14:33.290Z,98475.25
2023-03-13T21:17:02.395Z,98470.91
2023-03-13T21:19:30.221Z,98460.22
2023-03-13T21:21:57.797Z,98466.00
2023-03-13T21:24:25.639Z,98473.16
2023-03-13T21:26:55.150Z,98475.59
2023-03-13T21:29:22.825Z,98482.34
2023-03-13T21:31:51.862Z,98478.84
2023-03-13T21:34:20.575Z,98486.63
2023-03-13T21:36:48.140Z,98492.75
2023-03-13T21:39:15.734Z,98487.84
2023-03-13T21:41:43.470Z,98475.91
2023-03-13T21:44:11.186Z,98462.44
2023-03-13T21:46:38.858Z,98460.75
2023-03-13T21:49:07.776Z,98455.59
2023-03-13T21:51:35.403Z,98447.63
2023-03-13T21:54:03.589Z,98449.47
2023-03-13T21:56:31.241Z,98448.00
2023-03-13T21:58:59.034Z,98444.53
2023-03-13T22:01:28.483Z,98444.94
2023-03-13T22:03:56.084Z,98425.88
2023-03-13T22:06:25.472Z,98431.19
2023-03-13T22:08:54.229Z,98430.75
2023-03-13T22:11:22.567Z,98416.00
2023-03-13T22:13:50.249Z,98395.53
2023-03-13T22:16:17.880Z,98394.34
2023-03-13T22:18:45.441Z,98423.78
2023-03-13T22:21:13.094Z,98438.72
2023-03-13T22:23:42.015Z,98440.19
2023-03-13T22:26:11.885Z,98436.06
2023-03-13T22:28:39.810Z,98436.47
2023-03-13T22:31:08.774Z,98436.06
2023-03-13T22:33:36.606Z,98438.94
2023-03-13T22:36:05.700Z,98438.53
2023-03-13T22:38:38.588Z,98430.31
2023-03-13T22:41:10.136Z,98439.34
2023-03-13T22:43:37.746Z,98462.84
2023-03-13T22:46:07.061Z,98471.22
2023-03-13T22:48:35.106Z,98478.59
2023-03-13T22:51:06.611Z,98484.97
2023-03-13T22:53:36.966Z,98487.19
2023-03-13T22:56:05.645Z,98495.41
2023-03-13T22:58:35.472Z,98488.91
2023-03-13T23:01:07.129Z,98488.13
2023-03-13T23:03:34.912Z,98489.38
2023-03-13T23:06:06.182Z,98484.69
2023-03-13T23:08:33.881Z,98473.81
2023-03-13T23:11:02.237Z,98459.97
2023-03-13T23:13:30.502Z,98462.03
2023-03-13T23:15:59.653Z,98459.97
2023-03-13T23:18:28.693Z,98448.50
2023-03-13T23:20:56.311Z,98448.28
2023-03-13T23:23:24.102Z,98443.19
2023-03-13T23:25:51.730Z,98434.59
2023-03-13T23:28:19.330Z,98434.97
2023-03-13T23:30:47.028Z,98420.44
2023-03-13T23:33:16.011Z,98395.22
2023-03-13T23:35:43.829Z,98397.06
2023-03-13T23:38:12.425Z,98400.56
2023-03-13T23:40:40.508Z,98398.72
2023-03-13T23:43:08.206Z,98408.75
2023-03-13T23:45:36.740Z,98411.22
2023-03-13T23:48:04.444Z,98408.75
2023-03-13T23:50:33.399Z,98413.25
2023-03-13T23:53:00.989Z,98411.81
2023-03-13T23:55:28.616Z,98409.94
2023-03-13T23:57:56.490Z,98410.75
